createdAt,value
2023-05-14T00:02:38.184Z,12.20
2023-05-14T00:07:40.853Z,11.28
2023-05-14T00:12:43.896Z,10.83
2023-05-14T00:17:56.562Z,12.23
2023-05-14T00:23:04.026Z,12.49
2023-05-14T00:28:06.719Z,11.46
2023-05-14T00:33:19.302Z,11.01
2023-05-14T00:38:31.954Z,12.63
2023-05-14T00:43:34.561Z,12.52
2023-05-14T00:48:37.316Z,12.39
2023-05-14T00:53:40.735Z,12.38
2023-05-14T00:58:54.959Z,11.78
2023-05-14T01:03:58.835Z,10.89
2023-05-14T01:09:23.780Z,11.81
2023-05-14T01:14:32.103Z,12.45
2023-05-14T01:19:44.387Z,11.59
2023-05-14T01:24:53.107Z,12.24
2023-05-14T01:30:20.648Z,12.22
2023-05-14T01:35:29.574Z,11.69
2023-05-14T01:40:34.133Z,10.36
2023-05-14T01:45:37.817Z,10.50
2023-05-14T01:50:40.387Z,11.28
2023-05-14T01:55:43.109Z,10.73
2023-05-14T02:00:45.915Z,11.54
2023-05-14T02:05:48.612Z,12.19
2023-05-14T02:10:51.565Z,10.73
2023-05-14T02:15:54.682Z,10.63
2023-05-14T02:20:58.593Z,10.98
2023-05-14T02:26:01.691Z,10.84
2023-05-14T02:31:04.358Z,12.60
2023-05-14T02:36:07.447Z,12.53
2023-05-14T02:41:10.157Z,11.84
2023-05-14T02:46:13.520Z,12.22
2023-05-14T02:51:17.193Z,12.43
2023-05-14T02:56:20.651Z,10.86
2023-05-14T03:01:23.197Z,11.13
2023-05-14T03:06:26.224Z,10.95
2023-05-14T03:11:39.955Z,10.77
2023-05-14T03:16:43.125Z,11.34
2023-05-14T03:21:45.875Z,10.99
2023-05-14T03:26:48.982Z,11.09
2023-05-14T03:31:52.893Z,10.46
2023-05-14T03:36:55.492Z,11.17
2023-05-14T03:41:59.744Z,11.72
2023-05-14T03:47:02.406Z,10.57
2023-05-14T03:52:08.185Z,11.10
2023-05-14T03:57:10.735Z,11.65
2023-05-14T04:02:13.432Z,10.83
2023-05-14T04:07:16.378Z,11.62
2023-05-14T04:12:18.924Z,11.25
2023-05-14T04:17:21.503Z,10.48
2023-05-14T04:22:24.138Z,11.48
2023-05-14T04:27:26.764Z,11.40
2023-05-14T04:32:29.601Z,10.45
2023-05-14T04:37:32.659Z,11.50
2023-05-14T04:42:35.621Z,10.61
2023-05-14T04:47:38.325Z,10.38
2023-05-14T04:52:41.063Z,10.61
2023-05-14T04:57:44.119Z,11.48
2023-05-14T05:02:49.833Z,11.17
2023-05-14T05:07:52.708Z,11.32
2023-05-14T05:12:55.228Z,10.50
2023-05-14T05:17:57.958Z,11.59
2023-05-14T05:23:00.880Z,10.99
2023-05-14T05:28:04.944Z,10.58
2023-05-14T05:33:07.671Z,10.64
2023-05-14T05:38:10.616Z,12.17
2023-05-14T05:43:23.218Z,10.99
2023-05-14T05:48:25.780Z,12.00
2023-05-14T05:53:28.501Z,12.11
2023-05-14T05:58:31.074Z,10.90
2023-05-14T06:03:36.305Z,12.03
2023-05-14T06:08:39.040Z,11.99
2023-05-14T06:13:41.708Z,12.14
2023-05-14T06:18:45.314Z,11.07
2023-05-14T06:23:48.357Z,12.47
2023-05-14T06:28:50.992Z,12.08
2023-05-14T06:33:53.816Z,11.38
2023-05-14T06:38:56.410Z,12.66
2023-05-14T06:43:58.906Z,11.62
2023-05-14T06:49:01.514Z,11.58
2023-05-14T06:54:04.242Z,12.64
2023-05-14T06:59:06.901Z,12.16
2023-05-14T07:04:09.830Z,12.64
2023-05-14T07:09:12.998Z,12.73
2023-05-14T07:14:15.537Z,12.99
2023-05-14T07:19:18.106Z,12.75
2023-05-14T07:24:20.807Z,13.14
2023-05-14T07:29:23.542Z,12.27
2023-05-14T07:34:26.315Z,12.74
2023-05-14T07:39:28.880Z,12.05
2023-05-14T07:44:31.456Z,11.92
2023-05-14T07:49:34.505Z,12.53
2023-05-14T07:54:37.081Z,13.08
2023-05-14T07:59:40.367Z,11.79
2023-05-14T08:04:43.842Z,12.65
2023-05-14T08:09:46.820Z,12.60
2023-05-14T08:14:49.664Z,12.82
2023-05-14T08:19:52.269Z,13.29
2023-05-14T08:30:10.533Z,13.79
2023-05-14T08:35:14.160Z,13.82
2023-05-14T08:40:18.834Z,12.65
2023-05-14T08:45:26.510Z,13.64
2023-05-14T08:50:31.251Z,12.82
2023-05-14T08:55:34.992Z,11.65
2023-05-14T09:00:37.596Z,12.38
2023-05-14T09:05:40.742Z,13.48
2023-05-14T09:10:43.502Z,13.20
2023-05-14T09:15:47.095Z,13.32
2023-05-14T09:20:50.364Z,11.71
2023-05-14T09:25:53.364Z,11.80
2023-05-14T09:30:55.881Z,12.76
2023-05-14T09:36:02.668Z,12.12
2023-05-14T09:41:05.408Z,12.61
2023-05-14T09:46:18.912Z,11.86
2023-05-14T09:51:21.919Z,12.10
2023-05-14T09:56:24.488Z,11.34
2023-05-14T10:01:29.262Z,12.03
2023-05-14T10:06:37.290Z,11.92
2023-05-14T10:11:44.507Z,11.05
2023-05-14T10:16:54.058Z,10.83
2023-05-14T10:22:02.696Z,11.81
2023-05-14T10:27:06.908Z,11.73
2023-05-14T10:32:10.589Z,11.50
2023-05-14T10:37:20.536Z,11.87
2023-05-14T10:42:27.112Z,11.22
2023-05-14T10:47:33.009Z,11.78
2023-05-14T10:52:37.093Z,11.63
2023-05-14T10:57:44.735Z,11.58
2023-05-14T11:02:47.724Z,11.57
2023-05-14T11:07:51.277Z,11.42
2023-05-14T11:12:54.087Z,11.46
2023-05-14T11:17:57.026Z,11.63
2023-05-14T11:22:59.713Z,11.43
2023-05-14T11:28:12.511Z,11.76
2023-05-14T11:33:15.293Z,11.55
2023-05-14T11:38:19.864Z,11.43
2023-05-14T11:43:27.020Z,11.52
2023-05-14T11:48:30.210Z,11.26
2023-05-14T11:53:33.279Z,10.92
2023-05-14T11:58:35.958Z,11.41
2023-05-14T12:03:38.897Z,11.00
2023-05-14T12:08:41.837Z,11.87
2023-05-14T12:13:44.657Z,11.83
2023-05-14T12:18:47.685Z,11.08
2023-05-14T12:23:58.261Z,12.00
2023-05-14T12:29:13.773Z,12.23
2023-05-14T12:34:20.214Z,11.87
2023-05-14T12:39:23.064Z,11.45
2023-05-14T12:44:35.907Z,12.46
2023-05-14T12:49:38.747Z,12.06
2023-05-14T12:54:43.196Z,12.16
2023-05-14T12:59:56.149Z,12.55
2023-05-14T13:04:59.055Z,12.43
2023-05-14T13:10:02.218Z,12.35
2023-05-14T13:15:05.427Z,12.99
2023-05-14T13:20:09.231Z,13.15
2023-05-14T13:25:20.547Z,12.86
2023-05-14T13:30:23.422Z,12.83
2023-05-14T13:35:26.324Z,13.16
2023-05-14T13:40:29.425Z,13.08
2023-05-14T13:45:32.239Z,12.73
2023-05-14T13:50:35.142Z,12.36
2023-05-14T13:55:41.009Z,13.38
2023-05-14T14:00:44.267Z,13.57
2023-05-14T14:05:47.286Z,13.87
2023-05-14T14:10:51.050Z,14.39
2023-05-14T14:15:54.339Z,14.20
2023-05-14T14:20:58.370Z,13.20
2023-05-14T14:26:11.700Z,13.94
2023-05-14T14:31:14.880Z,13.55
2023-05-14T14:36:18.090Z,13.33
2023-05-14T14:41:20.687Z,12.80
2023-05-14T14:46:23.306Z,14.30
2023-05-14T14:51:26.162Z,14.20
2023-05-14T14:56:29.110Z,13.87
2023-05-14T15:01:33.038Z,13.97
2023-05-14T15:06:36.159Z,14.07
2023-05-14T15:11:39.170Z,13.76
2023-05-14T15:16:42.802Z,12.83
2023-05-14T15:21:45.520Z,13.32
2023-05-14T15:26:48.304Z,13.18
2023-05-14T15:31:50.875Z,13.04
2023-05-14T15:36:53.827Z,11.85
2023-05-14T15:41:56.489Z,12.07
2023-05-14T15:46:59.009Z,12.43
2023-05-14T15:52:03.637Z,13.16
2023-05-14T15:57:06.631Z,12.91
2023-05-14T16:02:14.188Z,13.15
2023-05-14T16:07:26.708Z,13.21
2023-05-14T16:12:29.473Z,12.38
2023-05-14T16:17:33.573Z,12.87
2023-05-14T16:22:37.367Z,12.62
2023-05-14T16:27:44.049Z,12.64
2023-05-14T16:32:51.347Z,11.66
2023-05-14T16:38:00.108Z,12.03
2023-05-14T16:43:03.648Z,12.17
2023-05-14T16:48:07.163Z,12.39
2023-05-14T16:53:09.795Z,12.31
2023-05-14T16:58:12.390Z,11.96
2023-05-14T17:03:20.702Z,12.03
2023-05-14T17:08:23.976Z,12.17
2023-05-14T17:13:26.653Z,12.27
2023-05-14T17:18:29.884Z,11.72
2023-05-14T17:23:43.348Z,12.28
2023-05-14T17:28:46.675Z,12.16
2023-05-14T17:33:49.845Z,12.29
2023-05-14T17:39:02.437Z,12.35
2023-05-14T17:44:05.413Z,12.15
2023-05-14T17:49:10.290Z,11.93
2023-05-14T17:54:12.838Z,11.70
2023-05-14T17:59:15.400Z,11.40
2023-05-14T18:04:22.670Z,11.40
2023-05-14T18:09:25.541Z,10.82
2023-05-14T18:14:28.118Z,11.28
2023-05-14T18:19:30.671Z,11.23
2023-05-14T18:24:33.265Z,11.07
2023-05-14T18:29:36.102Z,11.22
2023-05-14T18:34:46.472Z,11.23
2023-05-14T18:39:49.194Z,11.02
2023-05-14T18:45:02.364Z,11.28
2023-05-14T18:50:06.137Z,10.85
2023-05-14T18:55:09.235Z,11.23
2023-05-14T19:00:12.568Z,11.12
2023-05-14T19:05:15.192Z,10.94
2023-05-14T19:10:18.242Z,11.34
2023-05-14T19:15:21.143Z,11.22
2023-05-14T19:20:23.792Z,10.48
2023-05-14T19:25:30.427Z,11.21
2023-05-14T19:30:33.015Z,11.23
2023-05-14T19:35:35.797Z,10.88
2023-05-14T19:40:38.804Z,11.44
2023-05-14T19:45:43.449Z,10.98
2023-05-14T19:50:47.789Z,11.30
2023-05-14T19:55:50.649Z,11.03
2023-05-14T20:00:54.148Z,11.25
2023-05-14T20:05:57.142Z,11.22
2023-05-14T20:10:59.747Z,11.04
2023-05-14T20:16:15.784Z,10.87
2023-05-14T20:21:19.078Z,11.15
2023-05-14T20:26:22.041Z,11.19
2023-05-14T20:31:24.684Z,10.56
2023-05-14T20:36:27.338Z,11.22
2023-05-14T20:41:29.889Z,10.86
2023-05-14T20:46:32.901Z,10.87
2023-05-14T20:51:35.814Z,10.87
2023-05-14T20:56:40.126Z,10.52
2023-05-14T21:01:43.798Z,10.46
2023-05-14T21:06:46.766Z,10.65
2023-05-14T21:11:49.477Z,10.42
2023-05-14T21:16:52.255Z,10.03
2023-05-14T21:22:04.930Z,10.49
2023-05-14T21:27:07.578Z,10.54
2023-05-14T21:32:10.245Z,10.33
2023-05-14T21:37:15.598Z,10.58
2023-05-14T21:42:19.956Z,10.96
2023-05-14T21:47:30.525Z,10.92
2023-05-14T21:52:43.391Z,10.80
2023-05-14T21:57:46.207Z,9.99
2023-05-14T22:02:49.037Z,10.64
2023-05-14T22:07:53.171Z,10.67
2023-05-14T22:13:05.856Z,10.53
2023-05-14T22:18:08.965Z,10.58
2023-05-14T22:23:11.939Z,10.42
2023-05-14T22:28:15.807Z,9.70
2023-05-14T22:33:20.118Z,9.67
2023-05-14T22:38:22.673Z,9.98
2023-05-14T22:43:25.508Z,10.38
2023-05-14T22:48:28.381Z,10.37
2023-05-14T22:53:31.193Z,10.09
2023-05-14T22:58:33.737Z,10.02
2023-05-14T23:03:36.369Z,9.98
2023-05-14T23:08:39.358Z,10.77
2023-05-14T23:13:42.416Z,10.41
2023-05-14T23:18:45.521Z,10.71
2023-05-14T23:23:49.575Z,10.70
2023-05-14T23:28:52.728Z,10.52
2023-05-14T23:33:55.291Z,9.94
2023-05-14T23:38:59.273Z,10.43
2023-05-14T23:44:02.016Z,10.50
2023-05-14T23:49:05.198Z,9.66
2023-05-14T23:54:07.819Z,9.65
2023-05-14T23:59:10.670Z,9.57
